Williston, North Dakota
Current Conditions -  °F | °C
As of 3:52 AM on Sunday 21 Dec 2014 (Local Time) from KISN Reporting Station
Clear Clear  
Wind Chill: -8°   Ceiling: Unl
Heat Index: -8°   Visibility: 10mi
Dew Point: -9°   Wind: 0mph
Humidity: 88%   Direction: NA
Pressure: 29.59"   Gusts: NA
Location:  48.15°N, 103.62°W
Report Text: KISN 210952Z AUTO 00000KT 10SM CLR M08/M09 A2959 RMK AO2 SLP047 I1000 T10781094 $
Loading
Personal Weather Stations






























Interactive Weather Map New forecast layout! Learn more

10-Day Weather Forecast

Advertisements
Track Severe Weather on mobile